sensor_id;sensor_type;location;lat;lon;timestamp;pressure;altitude;pressure_sealevel;temperature;humidity
52591;BME280;38483;42.620;25.394;2023-04-06T00:00:14;96571.25;;;5.74;80.50
52591;BME280;38483;42.620;25.394;2023-04-06T00:02:42;96585.03;;;5.71;82.00
52591;BME280;38483;42.620;25.394;2023-04-06T00:05:09;96575.81;;;5.66;81.49
52591;BME280;38483;42.620;25.394;2023-04-06T00:07:37;96582.31;;;6.01;81.09
52591;BME280;38483;42.620;25.394;2023-04-06T00:10:04;96575.00;;;6.13;80.83
52591;BME280;38483;42.620;25.394;2023-04-06T00:12:31;96533.13;;;5.62;81.11
52591;BME280;38483;42.620;25.394;2023-04-06T00:14:58;96567.53;;;5.83;81.62
52591;BME280;38483;42.620;25.394;2023-04-06T00:17:26;96566.50;;;5.88;80.77
52591;BME280;38483;42.620;25.394;2023-04-06T00:19:53;96565.38;;;5.70;81.94
52591;BME280;38483;42.620;25.394;2023-04-06T00:22:20;96556.63;;;5.51;81.97
52591;BME280;38483;42.620;25.394;2023-04-06T00:24:47;96552.09;;;5.83;82.41
52591;BME280;38483;42.620;25.394;2023-04-06T00:27:14;96556.00;;;5.94;81.35
52591;BME280;38483;42.620;25.394;2023-04-06T00:29:41;96553.19;;;6.02;81.45
52591;BME280;38483;42.620;25.394;2023-04-06T00:32:08;96544.63;;;6.01;80.71
52591;BME280;38483;42.620;25.394;2023-04-06T00:34:35;96544.16;;;6.13;79.83
52591;BME280;38483;42.620;25.394;2023-04-06T00:37:02;96543.03;;;6.20;79.76
52591;BME280;38483;42.620;25.394;2023-04-06T00:39:29;96535.91;;;6.05;80.12
52591;BME280;38483;42.620;25.394;2023-04-06T00:41:57;96543.03;;;6.20;79.99
52591;BME280;38483;42.620;25.394;2023-04-06T00:44:24;96541.16;;;6.25;80.22
52591;BME280;38483;42.620;25.394;2023-04-06T00:46:51;96532.66;;;6.23;79.45
52591;BME280;38483;42.620;25.394;2023-04-06T00:49:18;96532.31;;;6.32;78.62
52591;BME280;38483;42.620;25.394;2023-04-06T00:51:45;96530.47;;;6.13;80.10
52591;BME280;38483;42.620;25.394;2023-04-06T00:54:14;96533.03;;;6.13;79.96
52591;BME280;38483;42.620;25.394;2023-04-06T00:56:42;96526.50;;;6.04;80.87
52591;BME280;38483;42.620;25.394;2023-04-06T00:59:11;96527.03;;;6.14;80.92
52591;BME280;38483;42.620;25.394;2023-04-06T01:01:39;96521.31;;;6.06;79.53
52591;BME280;38483;42.620;25.394;2023-04-06T01:04:21;96508.34;;;6.09;79.21
52591;BME280;38483;42.620;25.394;2023-04-06T01:06:53;96528.03;;;6.10;80.52
52591;BME280;38483;42.620;25.394;2023-04-06T01:09:24;96494.94;;;6.01;79.39
52591;BME280;38483;42.620;25.394;2023-04-06T01:11:52;96519.00;;;5.98;79.39
52591;BME280;38483;42.620;25.394;2023-04-06T01:14:25;96535.69;;;6.11;79.46
52591;BME280;38483;42.620;25.394;2023-04-06T01:16:58;96512.25;;;5.96;80.12
52591;BME280;38483;42.620;25.394;2023-04-06T01:19:30;96523.66;;;5.89;79.70
52591;BME280;38483;42.620;25.394;2023-04-06T01:21:57;96518.94;;;6.00;78.72
52591;BME280;38483;42.620;25.394;2023-04-06T01:24:30;96514.25;;;5.88;80.07
52591;BME280;38483;42.620;25.394;2023-04-06T01:27:18;96507.88;;;5.98;78.93
52591;BME280;38483;42.620;25.394;2023-04-06T01:30:03;96501.97;;;5.96;78.48
52591;BME280;38483;42.620;25.394;2023-04-06T01:32:52;96500.38;;;5.93;79.40
52591;BME280;38483;42.620;25.394;2023-04-06T01:35:42;96504.38;;;6.00;79.06
52591;BME280;38483;42.620;25.394;2023-04-06T01:38:20;96504.16;;;6.06;78.77
52591;BME280;38483;42.620;25.394;2023-04-06T01:40:48;96467.47;;;5.78;78.30
52591;BME280;38483;42.620;25.394;2023-04-06T01:43:18;96494.69;;;5.85;79.85
52591;BME280;38483;42.620;25.394;2023-04-06T01:46:05;96494.53;;;5.88;78.89
52591;BME280;38483;42.620;25.394;2023-04-06T01:48:35;96498.03;;;5.87;79.95
52591;BME280;38483;42.620;25.394;2023-04-06T01:51:13;96497.28;;;5.84;79.81
52591;BME280;38483;42.620;25.394;2023-04-06T01:53:49;96503.34;;;5.81;79.00
52591;BME280;38483;42.620;25.394;2023-04-06T01:56:19;96498.13;;;5.84;79.42
52591;BME280;38483;42.620;25.394;2023-04-06T01:58:57;96499.81;;;5.85;79.05
52591;BME280;38483;42.620;25.394;2023-04-06T02:01:27;96494.69;;;5.85;79.55
52591;BME280;38483;42.620;25.394;2023-04-06T02:03:56;96502.88;;;5.95;79.14
52591;BME280;38483;42.620;25.394;2023-04-06T02:06:23;96500.41;;;5.92;79.56
52591;BME280;38483;42.620;25.394;2023-04-06T02:08:50;96497.25;;;5.85;79.67
52591;BME280;38483;42.620;25.394;2023-04-06T02:11:18;96497.28;;;5.84;79.91
52591;BME280;38483;42.620;25.394;2023-04-06T02:13:49;96500.38;;;5.93;79.65
52591;BME280;38483;42.620;25.394;2023-04-06T02:16:36;96496.34;;;5.86;79.16
52591;BME280;38483;42.620;25.394;2023-04-06T02:19:03;96502.03;;;5.94;78.64
52591;BME280;38483;42.620;25.394;2023-04-06T02:21:30;96504.16;;;6.06;79.42
52591;BME280;38483;42.620;25.394;2023-04-06T02:23:57;96495.81;;;6.00;78.56
52591;BME280;38483;42.620;25.394;2023-04-06T02:26:24;96489.31;;;5.91;78.57
52591;BME280;38483;42.620;25.394;2023-04-06T02:28:52;96506.31;;;5.94;78.65
52591;BME280;38483;42.620;25.394;2023-04-06T02:31:19;96503.72;;;5.95;78.76
52591;BME280;38483;42.620;25.394;2023-04-06T02:33:46;96478.63;;;5.77;79.22
52591;BME280;38483;42.620;25.394;2023-04-06T02:36:15;96512.59;;;5.87;78.46
52591;BME280;38483;42.620;25.394;2023-04-06T02:38:42;96516.38;;;5.75;78.68
52591;BME280;38483;42.620;25.394;2023-04-06T02:41:09;96506.19;;;5.49;79.63
52591;BME280;38483;42.620;25.394;2023-04-06T02:43:37;96508.91;;;5.44;80.78
52591;BME280;38483;42.620;25.394;2023-04-06T02:46:13;96501.69;;;5.31;81.34
52591;BME280;38483;42.620;25.394;2023-04-06T02:48:41;96509.97;;;5.39;81.69
52591;BME280;38483;42.620;25.394;2023-04-06T02:51:08;96507.41;;;5.39;82.14
52591;BME280;38483;42.620;25.394;2023-04-06T02:53:36;96505.53;;;5.67;81.57
52591;BME280;38483;42.620;25.394;2023-04-06T02:56:05;96488.47;;;5.66;80.41
52591;BME280;38483;42.620;25.394;2023-04-06T02:58:41;96505.94;;;5.81;79.36
52591;BME280;38483;42.620;25.394;2023-04-06T03:01:09;96501.75;;;5.77;78.45
52591;BME280;38483;42.620;25.394;2023-04-06T03:03:37;96505.09;;;5.79;77.59
52591;BME280;38483;42.620;25.394;2023-04-06T03:06:10;96508.50;;;5.81;77.58
52591;BME280;38483;42.620;25.394;2023-04-06T03:08:37;96513.31;;;5.90;77.87
52591;BME280;38483;42.620;25.394;2023-04-06T03:11:04;96516.56;;;5.95;77.10
52591;BME280;38483;42.620;25.394;2023-04-06T03:13:37;96513.09;;;5.96;77.24
52591;BME280;38483;42.620;25.394;2023-04-06T03:16:07;96516.00;;;5.87;77.18
52591;BME280;38483;42.620;25.394;2023-04-06T03:18:34;96519.31;;;5.91;76.90
52591;BME280;38483;42.620;25.394;2023-04-06T03:21:01;96525.28;;;5.91;77.35
52591;BME280;38483;42.620;25.394;2023-04-06T03:23:41;96523.22;;;6.01;77.40
52591;BME280;38483;42.620;25.394;2023-04-06T03:26:08;96526.41;;;6.07;76.13
52591;BME280;38483;42.620;25.394;2023-04-06T03:28:35;96508.91;;;5.94;77.34
52591;BME280;38483;42.620;25.394;2023-04-06T03:31:04;96525.06;;;5.97;77.15
52591;BME280;38483;42.620;25.394;2023-04-06T03:33:52;96509.88;;;5.91;76.89
52591;BME280;38483;42.620;25.394;2023-04-06T03:36:24;96520.03;;;5.94;76.53
52591;BME280;38483;42.620;25.394;2023-04-06T03:38:53;96519.06;;;5.97;76.88
52591;BME280;38483;42.620;25.394;2023-04-06T03:41:21;96509.91;;;5.90;76.30
52591;BME280;38483;42.620;25.394;2023-04-06T03:43:58;96522.81;;;5.88;76.49
52591;BME280;38483;42.620;25.394;2023-04-06T03:46:25;96524.69;;;5.83;76.92
52591;BME280;38483;42.620;25.394;2023-04-06T03:48:55;96519.56;;;5.58;78.41
52591;BME280;38483;42.620;25.394;2023-04-06T03:51:23;96525.16;;;5.45;79.67
52591;BME280;38483;42.620;25.394;2023-04-06T03:53:50;96520.06;;;5.19;79.35
52591;BME280;38483;42.620;25.394;2023-04-06T03:56:18;96525.63;;;5.07;79.71
52591;BME280;38483;42.620;25.394;2023-04-06T03:58:46;96523.25;;;5.01;79.86
52591;BME280;38483;42.620;25.394;2023-04-06T04:01:19;96531.31;;;5.15;79.04
52591;BME280;38483;42.620;25.394;2023-04-06T04:03:47;96523.50;;;5.19;79.07
52591;BME280;38483;42.620;25.394;2023-04-06T04:06:17;96521.88;;;5.41;78.01
52591;BME280;38483;42.620;25.394;2023-04-06T04:08:45;96522.16;;;5.57;77.33
52591;BME280;38483;42.620;25.394;2023-04-06T04:11:12;96520.28;;;5.62;76.63
52591;BME280;38483;42.620;25.394;2023-04-06T04:13:40;96512.66;;;5.60;75.97
52591;BME280;38483;42.620;25.394;2023-04-06T04:16:08;96519.88;;;5.74;75.93
52591;BME280;38483;42.620;25.394;2023-04-06T04:18:35;96512.38;;;5.68;75.87
52591;BME280;38483;42.620;25.394;2023-04-06T04:21:05;96491.88;;;5.66;75.49
52591;BME280;38483;42.620;25.394;2023-04-06T04:23:32;96516.94;;;5.60;75.93
52591;BME280;38483;42.620;25.394;2023-04-06T04:26:03;96519.16;;;5.69;76.77
52591;BME280;38483;42.620;25.394;2023-04-06T04:28:30;96504.59;;;5.69;76.88
52591;BME280;38483;42.620;25.394;2023-04-06T04:30:58;96510.47;;;5.73;76.47
52591;BME280;38483;42.620;25.394;2023-04-06T04:33:28;96525.88;;;5.73;76.14
52591;BME280;38483;42.620;25.394;2023-04-06T04:35:57;96526.28;;;5.87;76.86
52591;BME280;38483;42.620;25.394;2023-04-06T04:38:28;96522.50;;;5.97;76.40
52591;BME280;38483;42.620;25.394;2023-04-06T04:40:56;96521.13;;;6.10;75.88
52591;BME280;38483;42.620;25.394;2023-04-06T04:43:23;96517.13;;;6.03;75.22
52591;BME280;38483;42.620;25.394;2023-04-06T04:45:50;96517.19;;;6.02;74.53
52591;BME280;38483;42.620;25.394;2023-04-06T04:48:35;96525.56;;;6.07;73.85
52591;BME280;38483;42.620;25.394;2023-04-06T04:51:05;96519.41;;;5.88;73.93
52591;BME280;38483;42.620;25.394;2023-04-06T04:53:47;96523.81;;;5.84;74.43
52591;BME280;38483;42.620;25.394;2023-04-06T04:56:24;96511.75;;;5.86;74.64
52591;BME280;38483;42.620;25.394;2023-04-06T04:58:57;96524.91;;;6.02;73.74
52591;BME280;38483;42.620;25.394;2023-04-06T05:01:26;96522.59;;;5.94;73.71
52591;BME280;38483;42.620;25.394;2023-04-06T05:03:54;96529.13;;;6.03;73.94
52591;BME280;38483;42.620;25.394;2023-04-06T05:06:21;96528.06;;;5.85;74.51
52591;BME280;38483;42.620;25.394;2023-04-06T05:08:49;96533.19;;;6.08;73.94
52591;BME280;38483;42.620;25.394;2023-04-06T05:11:16;96532.31;;;6.09;73.37
52591;BME280;38483;42.620;25.394;2023-04-06T05:13:49;96536.47;;;6.13;73.16
52591;BME280;38483;42.620;25.394;2023-04-06T05:16:20;96538.19;;;6.13;74.94
52591;BME280;38483;42.620;25.394;2023-04-06T05:18:49;96524.50;;;6.12;76.05
52591;BME280;38483;42.620;25.394;2023-04-06T05:21:18;96528.41;;;6.22;76.09
52591;BME280;38483;42.620;25.394;2023-04-06T05:23:59;96531.31;;;6.13;76.06
52591;BME280;38483;42.620;25.394;2023-04-06T05:26:27;96526.66;;;6.23;75.70
52591;BME280;38483;42.620;25.394;2023-04-06T05:28:59;96495.56;;;6.07;75.16
52591;BME280;38483;42.620;25.394;2023-04-06T05:31:30;96521.38;;;6.27;75.94
52591;BME280;38483;42.620;25.394;2023-04-06T05:33:58;96534.47;;;6.43;74.16
52591;BME280;38483;42.620;25.394;2023-04-06T05:36:32;96530.47;;;6.57;74.66
52591;BME280;38483;42.620;25.394;2023-04-06T05:39:04;96523.28;;;6.67;74.42
52591;BME280;38483;42.620;25.394;2023-04-06T05:41:40;96529.78;;;6.76;74.02
52591;BME280;38483;42.620;25.394;2023-04-06T05:44:09;96520.38;;;6.75;73.24
52591;BME280;38483;42.620;25.394;2023-04-06T05:46:38;96500.22;;;6.86;72.93
52591;BME280;38483;42.620;25.394;2023-04-06T05:49:09;96513.53;;;7.17;73.50
52591;BME280;38483;42.620;25.394;2023-04-06T05:51:38;96502.16;;;7.22;72.75
52591;BME280;38483;42.620;25.394;2023-04-06T05:54:06;96503.50;;;7.51;71.60
52591;BME280;38483;42.620;25.394;2023-04-06T05:56:34;96502.63;;;7.52;69.67
52591;BME280;38483;42.620;25.394;2023-04-06T05:59:02;96485.53;;;7.29;70.98
52591;BME280;38483;42.620;25.394;2023-04-06T06:01:29;96507.56;;;7.77;70.39
52591;BME280;38483;42.620;25.394;2023-04-06T06:03:57;96493.28;;;7.88;69.30
52591;BME280;38483;42.620;25.394;2023-04-06T06:06:28;96487.84;;;7.94;68.96
52591;BME280;38483;42.620;25.394;2023-04-06T06:09:12;96489.28;;;8.20;68.30
52591;BME280;38483;42.620;25.394;2023-04-06T06:11:51;96479.72;;;8.03;66.10
52591;BME280;38483;42.620;25.394;2023-04-06T06:14:23;96485.38;;;8.11;64.28
52591;BME280;38483;42.620;25.394;2023-04-06T06:16:50;96469.88;;;7.74;63.64
52591;BME280;38483;42.620;25.394;2023-04-06T06:19:18;96492.91;;;7.97;63.26
52591;BME280;38483;42.620;25.394;2023-04-06T06:21:45;96460.13;;;7.81;62.02
52591;BME280;38483;42.620;25.394;2023-04-06T06:24:12;96482.88;;;8.29;60.32
52591;BME280;38483;42.620;25.394;2023-04-06T06:26:39;96491.16;;;8.72;59.67
52591;BME280;38483;42.620;25.394;2023-04-06T06:29:07;96483.06;;;8.97;57.86
52591;BME280;38483;42.620;25.394;2023-04-06T06:31:37;96490.97;;;8.94;58.60
52591;BME280;38483;42.620;25.394;2023-04-06T06:34:04;96491.28;;;9.05;58.15
52591;BME280;38483;42.620;25.394;2023-04-06T06:36:33;96489.53;;;9.06;57.67
52591;BME280;38483;42.620;25.394;2023-04-06T06:39:05;96459.50;;;8.69;58.49
52591;BME280;38483;42.620;25.394;2023-04-06T06:41:32;96476.69;;;8.87;57.57
52591;BME280;38483;42.620;25.394;2023-04-06T06:43:59;96492.50;;;8.98;58.40
52591;BME280;38483;42.620;25.394;2023-04-06T06:46:27;96489.09;;;9.32;57.69
52591;BME280;38483;42.620;25.394;2023-04-06T06:48:54;96491.66;;;9.49;57.88
52591;BME280;38483;42.620;25.394;2023-04-06T06:51:21;96494.47;;;9.78;57.10
52591;BME280;38483;42.620;25.394;2023-04-06T06:53:48;96492.50;;;9.66;56.54
52591;BME280;38483;42.620;25.394;2023-04-06T06:56:15;96494.91;;;9.87;56.07
52591;BME280;38483;42.620;25.394;2023-04-06T06:58:42;96488.44;;;9.78;54.80
52591;BME280;38483;42.620;25.394;2023-04-06T07:01:09;96491.56;;;9.84;54.64
52591;BME280;38483;42.620;25.394;2023-04-06T07:03:37;96480.94;;;9.73;55.30
52591;BME280;38483;42.620;25.394;2023-04-06T07:06:04;96495.75;;;9.70;55.93
52591;BME280;38483;42.620;25.394;2023-04-06T07:08:31;96478.78;;;9.81;56.04
52591;BME280;38483;42.620;25.394;2023-04-06T07:10:58;96481.66;;;10.08;55.38
52591;BME280;38483;42.620;25.394;2023-04-06T07:13:25;96484.66;;;10.01;55.12
52591;BME280;38483;42.620;25.394;2023-04-06T07:15:56;96449.66;;;10.11;54.21
52591;BME280;38483;42.620;25.394;2023-04-06T07:18:23;96484.66;;;10.49;53.55
52591;BME280;38483;42.620;25.394;2023-04-06T07:20:51;96478.56;;;10.19;51.80
52591;BME280;38483;42.620;25.394;2023-04-06T07:23:18;96479.63;;;10.15;52.40
52591;BME280;38483;42.620;25.394;2023-04-06T07:25:45;96493.84;;;10.39;51.35
52591;BME280;38483;42.620;25.394;2023-04-06T07:28:12;96487.09;;;10.52;49.76
52591;BME280;38483;42.620;25.394;2023-04-06T07:30:40;96484.75;;;10.79;49.12
52591;BME280;38483;42.620;25.394;2023-04-06T07:33:09;96490.09;;;10.29;48.82
52591;BME280;38483;42.620;25.394;2023-04-06T07:35:37;96493.59;;;10.28;50.13
52591;BME280;38483;42.620;25.394;2023-04-06T07:38:05;96477.22;;;10.43;49.87
52591;BME280;38483;42.620;25.394;2023-04-06T07:40:33;96449.03;;;10.54;49.53
52591;BME280;38483;42.620;25.394;2023-04-06T07:43:01;96482.00;;;10.82;50.34
52591;BME280;38483;42.620;25.394;2023-04-06T07:45:29;96484.72;;;10.94;50.21
52591;BME280;38483;42.620;25.394;2023-04-06T07:47:56;96488.59;;;10.87;50.25
52591;BME280;38483;42.620;25.394;2023-04-06T07:50:25;96483.13;;;11.07;51.02
52591;BME280;38483;42.620;25.394;2023-04-06T07:52:53;96481.22;;;10.95;50.61
52591;BME280;38483;42.620;25.394;2023-04-06T07:55:22;96475.53;;;11.04;49.87
52591;BME280;38483;42.620;25.394;2023-04-06T07:57:50;96466.66;;;11.08;49.37
52591;BME280;38483;42.620;25.394;2023-04-06T08:00:17;96482.50;;;11.18;48.92
52591;BME280;38483;42.620;25.394;2023-04-06T08:02:44;96482.16;;;11.24;49.40
52591;BME280;38483;42.620;25.394;2023-04-06T08:05:12;96467.22;;;11.13;49.27
52591;BME280;38483;42.620;25.394;2023-04-06T08:07:39;96487.41;;;11.08;49.08
52591;BME280;38483;42.620;25.394;2023-04-06T08:10:06;96486.00;;;11.32;49.08
52591;BME280;38483;42.620;25.394;2023-04-06T08:12:34;96465.03;;;11.21;48.53
52591;BME280;38483;42.620;25.394;2023-04-06T08:15:01;96479.34;;;11.42;48.13
52591;BME280;38483;42.620;25.394;2023-04-06T08:17:31;96493.97;;;11.14;48.35
52591;BME280;38483;42.620;25.394;2023-04-06T08:19:59;96482.06;;;11.25;48.75
52591;BME280;38483;42.620;25.394;2023-04-06T08:22:26;96482.34;;;11.65;48.81
52591;BME280;38483;42.620;25.394;2023-04-06T08:24:53;96484.44;;;11.88;47.94
52591;BME280;38483;42.620;25.394;2023-04-06T08:27:20;96477.78;;;11.98;46.98
52591;BME280;38483;42.620;25.394;2023-04-06T08:29:49;96477.16;;;11.65;47.32
52591;BME280;38483;42.620;25.394;2023-04-06T08:32:17;96468.31;;;11.69;47.17
52591;BME280;38483;42.620;25.394;2023-04-06T08:34:44;96474.06;;;11.44;47.99
52591;BME280;38483;42.620;25.394;2023-04-06T08:37:12;96467.38;;;11.40;48.02
52591;BME280;38483;42.620;25.394;2023-04-06T08:39:38;96435.50;;;11.24;47.71
52591;BME280;38483;42.620;25.394;2023-04-06T08:42:12;96462.00;;;11.29;48.42
52591;BME280;38483;42.620;25.394;2023-04-06T08:44:45;96464.38;;;11.48;47.92
52591;BME280;38483;42.620;25.394;2023-04-06T08:47:12;96471.69;;;11.85;46.64
52591;BME280;38483;42.620;25.394;2023-04-06T08:49:40;96474.09;;;11.58;49.19
52591;BME280;38483;42.620;25.394;2023-04-06T08:52:10;96453.03;;;12.20;46.60
52591;BME280;38483;42.620;25.394;2023-04-06T08:54:38;96474.81;;;12.04;46.14
52591;BME280;38483;42.620;25.394;2023-04-06T08:57:06;96481.31;;;11.23;47.43
52591;BME280;38483;42.620;25.394;2023-04-06T08:59:34;96480.31;;;10.96;48.25
52591;BME280;38483;42.620;25.394;2023-04-06T09:02:03;96465.97;;;10.75;48.73
52591;BME280;38483;42.620;25.394;2023-04-06T09:04:35;96468.38;;;10.47;49.23
52591;BME280;38483;42.620;25.394;2023-04-06T09:07:03;96445.53;;;10.24;49.93
52591;BME280;38483;42.620;25.394;2023-04-06T09:09:30;96468.97;;;10.52;49.77
52591;BME280;38483;42.620;25.394;2023-04-06T09:11:57;96452.53;;;10.22;50.46
52591;BME280;38483;42.620;25.394;2023-04-06T09:14:34;96459.72;;;10.32;50.27
52591;BME280;38483;42.620;25.394;2023-04-06T09:17:02;96464.88;;;10.48;50.45
52591;BME280;38483;42.620;25.394;2023-04-06T09:19:29;96457.13;;;10.48;49.55
52591;BME280;38483;42.620;25.394;2023-04-06T09:22:06;96426.56;;;10.39;49.69
52591;BME280;38483;42.620;25.394;2023-04-06T09:24:48;96462.38;;;10.62;49.74
52591;BME280;38483;42.620;25.394;2023-04-06T09:27:15;96459.00;;;10.91;49.42
52591;BME280;38483;42.620;25.394;2023-04-06T09:29:43;96443.03;;;11.28;49.09
52591;BME280;38483;42.620;25.394;2023-04-06T09:32:13;96443.16;;;11.41;49.62
52591;BME280;38483;42.620;25.394;2023-04-06T09:34:43;96449.13;;;11.71;48.28
52591;BME280;38483;42.620;25.394;2023-04-06T09:37:18;96441.56;;;11.53;48.19
52591;BME280;38483;42.620;25.394;2023-04-06T09:39:46;96436.72;;;11.18;49.00
52591;BME280;38483;42.620;25.394;2023-04-06T09:42:25;96439.31;;;11.32;48.30
52591;BME280;38483;42.620;25.394;2023-04-06T09:44:52;96439.31;;;11.32;49.05
52591;BME280;38483;42.620;25.394;2023-04-06T09:47:19;96438.59;;;11.44;48.38
52591;BME280;38483;42.620;25.394;2023-04-06T09:49:50;96432.50;;;11.02;48.30
52591;BME280;38483;42.620;25.394;2023-04-06T09:52:17;96436.19;;;10.82;49.34
52591;BME280;38483;42.620;25.394;2023-04-06T09:54:47;96444.91;;;11.11;49.02
52591;BME280;38483;42.620;25.394;2023-04-06T10:02:48;96436.72;;;10.73;49.30
52591;BME280;38483;42.620;25.394;2023-04-06T10:07:54;96438.03;;;10.96;48.89
52591;BME280;38483;42.620;25.394;2023-04-06T10:10:28;96426.44;;;10.72;49.46
52591;BME280;38483;42.620;25.394;2023-04-06T10:12:56;96430.09;;;10.83;50.16
52591;BME280;38483;42.620;25.394;2023-04-06T10:15:23;96433.88;;;11.07;49.98
52591;BME280;38483;42.620;25.394;2023-04-06T10:17:51;96418.25;;;10.79;50.52
52591;BME280;38483;42.620;25.394;2023-04-06T10:20:46;96428.25;;;11.15;50.77
52591;BME280;38483;42.620;25.394;2023-04-06T10:23:43;96444.06;;;10.81;49.19
52591;BME280;38483;42.620;25.394;2023-04-06T10:26:16;96428.19;;;11.60;47.96
52591;BME280;38483;42.620;25.394;2023-04-06T10:28:45;96432.88;;;11.54;47.72
52591;BME280;38483;42.620;25.394;2023-04-06T10:31:13;96436.41;;;11.53;47.88
52591;BME280;38483;42.620;25.394;2023-04-06T10:33:40;96432.03;;;11.09;48.95
52591;BME280;38483;42.620;25.394;2023-04-06T10:36:13;96415.00;;;11.05;49.38
52591;BME280;38483;42.620;25.394;2023-04-06T10:38:41;96427.56;;;10.97;49.31
52591;BME280;38483;42.620;25.394;2023-04-06T10:41:11;96425.22;;;10.93;49.84
52591;BME280;38483;42.620;25.394;2023-04-06T10:43:41;96399.41;;;11.21;50.02
52591;BME280;38483;42.620;25.394;2023-04-06T10:46:09;96415.75;;;11.65;48.62
52591;BME280;38483;42.620;25.394;2023-04-06T10:48:43;96417.94;;;11.87;48.07
52591;BME280;38483;42.620;25.394;2023-04-06T10:51:15;96421.78;;;11.66;48.18
52591;BME280;38483;42.620;25.394;2023-04-06T10:53:47;96413.13;;;11.23;50.21
52591;BME280;38483;42.620;25.394;2023-04-06T10:56:16;96401.00;;;11.37;49.50
52591;BME280;38483;42.620;25.394;2023-04-06T10:58:45;96408.03;;;11.35;50.96
52591;BME280;38483;42.620;25.394;2023-04-06T11:01:20;96415.97;;;11.18;50.46
52591;BME280;38483;42.620;25.394;2023-04-06T11:03:51;96409.91;;;10.74;50.48
52591;BME280;38483;42.620;25.394;2023-04-06T11:06:20;96409.59;;;10.94;50.27
52591;BME280;38483;42.620;25.394;2023-04-06T11:08:47;96398.63;;;10.75;49.85
52591;BME280;38483;42.620;25.394;2023-04-06T11:11:16;96408.81;;;10.78;50.34
52591;BME280;38483;42.620;25.394;2023-04-06T11:13:46;96411.13;;;10.53;50.54
52591;BME280;38483;42.620;25.394;2023-04-06T11:16:15;96395.44;;;10.70;50.52
52591;BME280;38483;42.620;25.394;2023-04-06T11:18:56;96404.28;;;11.11;49.95
52591;BME280;38483;42.620;25.394;2023-04-06T11:21:36;96399.81;;;10.99;49.67
52591;BME280;38483;42.620;25.394;2023-04-06T11:26:57;96405.97;;;11.12;49.32
52591;BME280;38483;42.620;25.394;2023-04-06T11:29:29;96405.94;;;10.98;49.01
52591;BME280;38483;42.620;25.394;2023-04-06T11:32:04;96389.31;;;11.16;49.26
52591;BME280;38483;42.620;25.394;2023-04-06T11:34:36;96389.81;;;11.37;49.11
52591;BME280;38483;42.620;25.394;2023-04-06T11:37:08;96386.75;;;11.30;48.77
52591;BME280;38483;42.620;25.394;2023-04-06T11:39:40;96396.75;;;11.36;49.06
52591;BME280;38483;42.620;25.394;2023-04-06T11:42:07;96389.19;;;11.62;48.21
52591;BME280;38483;42.620;25.394;2023-04-06T11:44:40;96385.47;;;11.66;47.84
52591;BME280;38483;42.620;25.394;2023-04-06T11:47:08;96386.13;;;11.97;47.00
52591;BME280;38483;42.620;25.394;2023-04-06T11:49:39;96386.03;;;12.13;46.70
52591;BME280;38483;42.620;25.394;2023-04-06T11:52:21;96390.19;;;12.01;46.55
52591;BME280;38483;42.620;25.394;2023-04-06T11:54:50;96399.94;;;11.98;46.60
52591;BME280;38483;42.620;25.394;2023-04-06T11:57:18;96390.03;;;11.90;46.48
52591;BME280;38483;42.620;25.394;2023-04-06T11:59:46;96365.63;;;11.65;46.16
52591;BME280;38483;42.620;25.394;2023-04-06T12:02:13;96388.47;;;11.74;46.64
52591;BME280;38483;42.620;25.394;2023-04-06T12:04:40;96385.53;;;11.50;47.01
52591;BME280;38483;42.620;25.394;2023-04-06T12:07:08;96394.81;;;11.54;47.20
52591;BME280;38483;42.620;25.394;2023-04-06T12:09:35;96390.66;;;11.66;47.12
52591;BME280;38483;42.620;25.394;2023-04-06T12:12:03;96393.81;;;11.71;46.90
52591;BME280;38483;42.620;25.394;2023-04-06T12:14:30;96388.47;;;11.74;47.10
52591;BME280;38483;42.620;25.394;2023-04-06T12:16:58;96398.25;;;11.55;47.10
52591;BME280;38483;42.620;25.394;2023-04-06T12:19:25;96396.13;;;11.47;46.71
52591;BME280;38483;42.620;25.394;2023-04-06T12:21:53;96396.28;;;11.30;47.01
52591;BME280;38483;42.620;25.394;2023-04-06T12:24:21;96395.44;;;11.29;48.08
52591;BME280;38483;42.620;25.394;2023-04-06T12:26:48;96377.97;;;11.33;47.76
52591;BME280;38483;42.620;25.394;2023-04-06T12:29:25;96372.13;;;11.43;47.26
52591;BME280;38483;42.620;25.394;2023-04-06T12:31:52;96374.91;;;11.40;47.29
52591;BME280;38483;42.620;25.394;2023-04-06T12:34:20;96385.53;;;11.50;47.27
52591;BME280;38483;42.620;25.394;2023-04-06T12:36:47;96387.97;;;11.39;46.67
52591;BME280;38483;42.620;25.394;2023-04-06T12:39:15;96390.72;;;11.50;46.46
52591;BME280;38483;42.620;25.394;2023-04-06T12:41:46;96388.50;;;11.30;46.02
52591;BME280;38483;42.620;25.394;2023-04-06T12:44:13;96375.81;;;11.25;46.42
52591;BME280;38483;42.620;25.394;2023-04-06T12:46:40;96370.72;;;11.24;46.72
52591;BME280;38483;42.620;25.394;2023-04-06T12:49:10;96392.13;;;11.41;47.03
52591;BME280;38483;42.620;25.394;2023-04-06T12:51:37;96385.63;;;11.34;47.47
52591;BME280;38483;42.620;25.394;2023-04-06T12:54:04;96384.69;;;11.35;47.20
52591;BME280;38483;42.620;25.394;2023-04-06T12:56:32;96377.13;;;11.32;47.09
52591;BME280;38483;42.620;25.394;2023-04-06T12:58:59;96367.28;;;11.23;47.36
52591;BME280;38483;42.620;25.394;2023-04-06T13:01:27;96381.19;;;11.22;47.38
52591;BME280;38483;42.620;25.394;2023-04-06T13:03:56;96368.38;;;11.05;48.00
52591;BME280;38483;42.620;25.394;2023-04-06T13:06:23;96374.44;;;10.60;48.78
52591;BME280;38483;42.620;25.394;2023-04-06T13:08:55;96380.25;;;10.64;48.00
52591;BME280;38483;42.620;25.394;2023-04-06T13:11:22;96365.72;;;10.77;48.19
52591;BME280;38483;42.620;25.394;2023-04-06T13:13:53;96367.56;;;10.75;47.77
52591;BME280;38483;42.620;25.394;2023-04-06T13:16:20;96364.56;;;10.67;47.61
52591;BME280;38483;42.620;25.394;2023-04-06T13:18:50;96363.28;;;10.74;47.87